Sauk Centre, Minnesota
Current Conditions -  °F | °C
As of 7:32 PM on Friday 28 Nov 2014 (Local Time) from KD39 Reporting Station
Overcast Overcast  
Wind Chill:   Ceiling: 1600
Heat Index: 16°   Visibility: 10mi
Dew Point: 13°   Wind: 7mph
Humidity: 87%   Direction: 110°ESE
Pressure: 29.76"   Gusts: NA
Location:  45.74°N, 94.95°W
Report Text: KD39 290132Z AUTO 11006KT 10SM OVC016 M09/M10 A2976 RMK AO2 T10871105
Loading
Personal Weather Stations






























Interactive Weather Map New forecast layout! Learn more

10-Day Weather Forecast

Advertisements
Track Severe Weather on mobile